sensor_id;sensor_type;location;lat;lon;timestamp;temperature;humidity
9118;DHT22;4594;50.994;7.126;2023-04-24T00:00:57;14.20;57.00
9118;DHT22;4594;50.994;7.126;2023-04-24T00:03:24;14.20;57.00
9118;DHT22;4594;50.994;7.126;2023-04-24T00:05:50;14.20;57.00
9118;DHT22;4594;50.994;7.126;2023-04-24T00:08:16;14.10;56.90
9118;DHT22;4594;50.994;7.126;2023-04-24T00:10:42;14.20;56.90
9118;DHT22;4594;50.994;7.126;2023-04-24T00:13:08;14.20;56.90
9118;DHT22;4594;50.994;7.126;2023-04-24T00:15:34;14.10;56.90
9118;DHT22;4594;50.994;7.126;2023-04-24T00:17:59;14.10;57.00
9118;DHT22;4594;50.994;7.126;2023-04-24T00:20:27;14.10;57.10
9118;DHT22;4594;50.994;7.126;2023-04-24T00:22:54;14.00;57.10
9118;DHT22;4594;50.994;7.126;2023-04-24T00:25:21;14.10;57.30
9118;DHT22;4594;50.994;7.126;2023-04-24T00:27:46;14.10;57.40
9118;DHT22;4594;50.994;7.126;2023-04-24T00:30:12;14.10;57.50
9118;DHT22;4594;50.994;7.126;2023-04-24T00:32:38;14.10;57.60
9118;DHT22;4594;50.994;7.126;2023-04-24T00:35:05;14.00;57.60
9118;DHT22;4594;50.994;7.126;2023-04-24T00:37:31;14.00;57.50
9118;DHT22;4594;50.994;7.126;2023-04-24T00:39:57;14.00;57.50
9118;DHT22;4594;50.994;7.126;2023-04-24T00:42:23;14.00;57.40
9118;DHT22;4594;50.994;7.126;2023-04-24T00:44:49;14.70;57.70
9118;DHT22;4594;50.994;7.126;2023-04-24T00:47:16;14.50;57.60
9118;DHT22;4594;50.994;7.126;2023-04-24T00:49:42;14.00;57.30
9118;DHT22;4594;50.994;7.126;2023-04-24T00:52:08;14.40;57.60
9118;DHT22;4594;50.994;7.126;2023-04-24T00:54:34;14.00;57.40
9118;DHT22;4594;50.994;7.126;2023-04-24T00:57:05;14.00;57.50
9118;DHT22;4594;50.994;7.126;2023-04-24T00:59:31;13.90;57.40
9118;DHT22;4594;50.994;7.126;2023-04-24T01:01:58;13.90;57.70
9118;DHT22;4594;50.994;7.126;2023-04-24T01:04:24;14.00;57.90
9118;DHT22;4594;50.994;7.126;2023-04-24T01:06:51;13.90;57.90
9118;DHT22;4594;50.994;7.126;2023-04-24T01:09:18;14.10;58.10
9118;DHT22;4594;50.994;7.126;2023-04-24T01:11:44;14.40;58.30
9118;DHT22;4594;50.994;7.126;2023-04-24T01:14:10;14.00;58.10
9118;DHT22;4594;50.994;7.126;2023-04-24T01:16:36;14.00;58.10
9118;DHT22;4594;50.994;7.126;2023-04-24T01:19:04;14.20;58.20
9118;DHT22;4594;50.994;7.126;2023-04-24T01:21:34;15.20;59.00
9118;DHT22;4594;50.994;7.126;2023-04-24T01:24:03;14.00;57.60
9118;DHT22;4594;50.994;7.126;2023-04-24T01:26:30;14.00;57.90
9118;DHT22;4594;50.994;7.126;2023-04-24T01:28:56;14.00;57.90
9118;DHT22;4594;50.994;7.126;2023-04-24T01:31:22;14.00;57.90
9118;DHT22;4594;50.994;7.126;2023-04-24T01:33:49;14.00;57.90
9118;DHT22;4594;50.994;7.126;2023-04-24T01:36:16;14.00;57.90
9118;DHT22;4594;50.994;7.126;2023-04-24T01:38:43;14.50;58.40
9118;DHT22;4594;50.994;7.126;2023-04-24T01:41:09;15.60;59.10
9118;DHT22;4594;50.994;7.126;2023-04-24T01:43:35;14.20;57.90
9118;DHT22;4594;50.994;7.126;2023-04-24T01:46:01;14.10;57.70
9118;DHT22;4594;50.994;7.126;2023-04-24T01:48:27;14.10;57.60
9118;DHT22;4594;50.994;7.126;2023-04-24T01:50:53;14.10;57.50
9118;DHT22;4594;50.994;7.126;2023-04-24T01:53:19;14.10;57.40
9118;DHT22;4594;50.994;7.126;2023-04-24T01:55:45;14.10;57.20
9118;DHT22;4594;50.994;7.126;2023-04-24T01:58:10;14.00;57.00
9118;DHT22;4594;50.994;7.126;2023-04-24T02:00:36;14.00;57.00
9118;DHT22;4594;50.994;7.126;2023-04-24T02:03:02;14.30;57.00
9118;DHT22;4594;50.994;7.126;2023-04-24T02:05:28;14.00;56.70
9118;DHT22;4594;50.994;7.126;2023-04-24T02:07:54;14.10;56.60
9118;DHT22;4594;50.994;7.126;2023-04-24T02:10:20;14.00;56.40
9118;DHT22;4594;50.994;7.126;2023-04-24T02:12:45;14.00;56.20
9118;DHT22;4594;50.994;7.126;2023-04-24T02:15:11;14.00;56.00
9118;DHT22;4594;50.994;7.126;2023-04-24T02:17:37;14.00;55.90
9118;DHT22;4594;50.994;7.126;2023-04-24T02:20:05;13.90;55.80
9118;DHT22;4594;50.994;7.126;2023-04-24T02:22:32;13.90;55.60
9118;DHT22;4594;50.994;7.126;2023-04-24T02:24:57;13.80;55.50
9118;DHT22;4594;50.994;7.126;2023-04-24T02:27:23;13.80;55.40
9118;DHT22;4594;50.994;7.126;2023-04-24T02:29:48;13.80;55.40
9118;DHT22;4594;50.994;7.126;2023-04-24T02:32:14;13.80;55.30
9118;DHT22;4594;50.994;7.126;2023-04-24T02:34:40;13.60;55.10
9118;DHT22;4594;50.994;7.126;2023-04-24T02:37:06;13.70;55.10
9118;DHT22;4594;50.994;7.126;2023-04-24T02:39:32;13.60;54.80
9118;DHT22;4594;50.994;7.126;2023-04-24T02:41:57;13.50;54.50
9118;DHT22;4594;50.994;7.126;2023-04-24T02:44:23;13.40;54.20
9118;DHT22;4594;50.994;7.126;2023-04-24T02:46:49;13.40;54.10
9118;DHT22;4594;50.994;7.126;2023-04-24T02:49:15;13.30;54.10
9118;DHT22;4594;50.994;7.126;2023-04-24T02:51:40;13.30;54.10
9118;DHT22;4594;50.994;7.126;2023-04-24T02:54:07;13.10;53.90
9118;DHT22;4594;50.994;7.126;2023-04-24T02:56:36;13.10;54.00
9118;DHT22;4594;50.994;7.126;2023-04-24T02:59:02;13.10;54.30
9118;DHT22;4594;50.994;7.126;2023-04-24T03:01:28;13.00;54.40
9118;DHT22;4594;50.994;7.126;2023-04-24T03:03:54;12.90;54.50
9118;DHT22;4594;50.994;7.126;2023-04-24T03:06:20;13.20;54.80
9118;DHT22;4594;50.994;7.126;2023-04-24T03:08:46;13.40;55.10
9118;DHT22;4594;50.994;7.126;2023-04-24T03:11:12;13.40;55.20
9118;DHT22;4594;50.994;7.126;2023-04-24T03:13:37;12.90;54.90
9118;DHT22;4594;50.994;7.126;2023-04-24T03:16:03;12.90;55.00
9118;DHT22;4594;50.994;7.126;2023-04-24T03:18:29;12.80;55.00
9118;DHT22;4594;50.994;7.126;2023-04-24T03:20:55;13.10;55.20
9118;DHT22;4594;50.994;7.126;2023-04-24T03:23:20;12.80;55.00
9118;DHT22;4594;50.994;7.126;2023-04-24T03:25:46;14.10;56.10
9118;DHT22;4594;50.994;7.126;2023-04-24T03:28:13;12.90;55.20
9118;DHT22;4594;50.994;7.126;2023-04-24T03:30:39;12.80;55.00
9118;DHT22;4594;50.994;7.126;2023-04-24T03:33:06;12.80;55.00
9118;DHT22;4594;50.994;7.126;2023-04-24T03:35:32;12.80;55.00
9118;DHT22;4594;50.994;7.126;2023-04-24T03:37:57;13.00;55.30
9118;DHT22;4594;50.994;7.126;2023-04-24T03:40:23;12.80;55.10
9118;DHT22;4594;50.994;7.126;2023-04-24T03:42:49;12.80;55.10
9118;DHT22;4594;50.994;7.126;2023-04-24T03:45:14;12.80;55.20
9118;DHT22;4594;50.994;7.126;2023-04-24T03:47:40;13.10;55.40
9118;DHT22;4594;50.994;7.126;2023-04-24T03:50:06;12.90;55.20
9118;DHT22;4594;50.994;7.126;2023-04-24T03:52:32;12.80;55.10
9118;DHT22;4594;50.994;7.126;2023-04-24T03:54:58;12.80;55.00
9118;DHT22;4594;50.994;7.126;2023-04-24T03:57:23;12.80;55.00
9118;DHT22;4594;50.994;7.126;2023-04-24T03:59:50;13.00;55.10
9118;DHT22;4594;50.994;7.126;2023-04-24T04:02:15;12.90;54.90
9118;DHT22;4594;50.994;7.126;2023-04-24T04:04:41;12.80;54.80
9118;DHT22;4594;50.994;7.126;2023-04-24T04:07:07;12.80;54.90
9118;DHT22;4594;50.994;7.126;2023-04-24T04:09:33;12.70;54.80
9118;DHT22;4594;50.994;7.126;2023-04-24T04:11:59;12.90;55.00
9118;DHT22;4594;50.994;7.126;2023-04-24T04:14:26;12.70;54.90
9118;DHT22;4594;50.994;7.126;2023-04-24T04:16:52;12.70;55.00
9118;DHT22;4594;50.994;7.126;2023-04-24T04:19:18;12.90;55.10
9118;DHT22;4594;50.994;7.126;2023-04-24T04:21:44;12.70;54.90
9118;DHT22;4594;50.994;7.126;2023-04-24T04:24:11;12.60;54.70
9118;DHT22;4594;50.994;7.126;2023-04-24T04:26:37;12.70;54.70
9118;DHT22;4594;50.994;7.126;2023-04-24T04:29:03;12.70;54.70
9118;DHT22;4594;50.994;7.126;2023-04-24T04:31:29;12.70;54.90
9118;DHT22;4594;50.994;7.126;2023-04-24T04:33:56;12.70;54.70
9118;DHT22;4594;50.994;7.126;2023-04-24T04:36:21;12.70;54.70
9118;DHT22;4594;50.994;7.126;2023-04-24T04:38:47;12.70;54.70
9118;DHT22;4594;50.994;7.126;2023-04-24T04:41:13;12.70;54.80
9118;DHT22;4594;50.994;7.126;2023-04-24T04:43:39;12.60;54.60
9118;DHT22;4594;50.994;7.126;2023-04-24T04:46:05;12.70;54.70
9118;DHT22;4594;50.994;7.126;2023-04-24T04:48:33;12.60;54.50
9118;DHT22;4594;50.994;7.126;2023-04-24T04:51:00;12.60;54.50
9118;DHT22;4594;50.994;7.126;2023-04-24T04:53:26;12.60;54.40
9118;DHT22;4594;50.994;7.126;2023-04-24T04:55:52;12.50;54.30
9118;DHT22;4594;50.994;7.126;2023-04-24T04:58:18;12.50;54.30
9118;DHT22;4594;50.994;7.126;2023-04-24T05:00:43;12.60;54.40
9118;DHT22;4594;50.994;7.126;2023-04-24T05:03:09;12.50;54.30
9118;DHT22;4594;50.994;7.126;2023-04-24T05:05:35;12.50;54.60
9118;DHT22;4594;50.994;7.126;2023-04-24T05:08:01;12.50;54.80
9118;DHT22;4594;50.994;7.126;2023-04-24T05:10:26;12.50;55.00
9118;DHT22;4594;50.994;7.126;2023-04-24T05:12:52;12.50;55.00
9118;DHT22;4594;50.994;7.126;2023-04-24T05:15:18;12.50;55.00
9118;DHT22;4594;50.994;7.126;2023-04-24T05:17:43;12.60;55.00
9118;DHT22;4594;50.994;7.126;2023-04-24T05:20:09;12.50;55.00
9118;DHT22;4594;50.994;7.126;2023-04-24T05:22:35;12.50;55.00
9118;DHT22;4594;50.994;7.126;2023-04-24T05:25:01;12.60;55.10
9118;DHT22;4594;50.994;7.126;2023-04-24T05:27:28;12.50;55.00
9118;DHT22;4594;50.994;7.126;2023-04-24T05:29:53;12.50;55.10
9118;DHT22;4594;50.994;7.126;2023-04-24T05:32:19;12.50;55.00
9118;DHT22;4594;50.994;7.126;2023-04-24T05:34:45;12.50;55.00
9118;DHT22;4594;50.994;7.126;2023-04-24T05:37:10;12.60;55.10
9118;DHT22;4594;50.994;7.126;2023-04-24T05:39:36;12.70;55.00
9118;DHT22;4594;50.994;7.126;2023-04-24T05:42:02;12.60;54.90
9118;DHT22;4594;50.994;7.126;2023-04-24T05:44:30;12.50;54.90
9118;DHT22;4594;50.994;7.126;2023-04-24T05:46:56;12.60;55.10
9118;DHT22;4594;50.994;7.126;2023-04-24T05:49:22;12.50;55.10
9118;DHT22;4594;50.994;7.126;2023-04-24T05:51:47;12.50;55.10
9118;DHT22;4594;50.994;7.126;2023-04-24T05:54:13;12.60;55.10
9118;DHT22;4594;50.994;7.126;2023-04-24T05:56:39;12.50;55.00
9118;DHT22;4594;50.994;7.126;2023-04-24T05:59:06;12.50;54.70
9118;DHT22;4594;50.994;7.126;2023-04-24T06:01:31;12.50;54.80
9118;DHT22;4594;50.994;7.126;2023-04-24T06:03:57;12.70;54.90
9118;DHT22;4594;50.994;7.126;2023-04-24T06:06:24;12.70;54.80
9118;DHT22;4594;50.994;7.126;2023-04-24T06:08:49;12.80;54.80
9118;DHT22;4594;50.994;7.126;2023-04-24T06:11:15;12.40;54.60
9118;DHT22;4594;50.994;7.126;2023-04-24T06:13:41;12.30;54.50
9118;DHT22;4594;50.994;7.126;2023-04-24T06:16:07;12.20;54.60
9118;DHT22;4594;50.994;7.126;2023-04-24T06:18:33;12.20;54.80
9118;DHT22;4594;50.994;7.126;2023-04-24T06:20:59;12.20;55.20
9118;DHT22;4594;50.994;7.126;2023-04-24T06:23:24;12.10;55.50
9118;DHT22;4594;50.994;7.126;2023-04-24T06:25:51;12.00;55.60
9118;DHT22;4594;50.994;7.126;2023-04-24T06:28:16;12.10;55.80
9118;DHT22;4594;50.994;7.126;2023-04-24T06:30:42;12.10;55.80
9118;DHT22;4594;50.994;7.126;2023-04-24T06:33:08;12.00;55.90
9118;DHT22;4594;50.994;7.126;2023-04-24T06:35:35;12.00;56.00
9118;DHT22;4594;50.994;7.126;2023-04-24T06:38:01;12.00;56.00
9118;DHT22;4594;50.994;7.126;2023-04-24T06:40:27;11.90;56.00
9118;DHT22;4594;50.994;7.126;2023-04-24T06:42:52;12.10;56.20
9118;DHT22;4594;50.994;7.126;2023-04-24T06:45:18;11.90;56.30
9118;DHT22;4594;50.994;7.126;2023-04-24T06:47:44;11.80;56.70
9118;DHT22;4594;50.994;7.126;2023-04-24T06:50:10;11.90;56.70
9118;DHT22;4594;50.994;7.126;2023-04-24T06:52:36;11.90;57.00
9118;DHT22;4594;50.994;7.126;2023-04-24T06:55:04;11.80;57.10
9118;DHT22;4594;50.994;7.126;2023-04-24T06:57:30;11.80;57.20
9118;DHT22;4594;50.994;7.126;2023-04-24T06:59:56;11.80;57.40
9118;DHT22;4594;50.994;7.126;2023-04-24T07:02:22;11.80;57.50
9118;DHT22;4594;50.994;7.126;2023-04-24T07:04:48;11.80;57.50
9118;DHT22;4594;50.994;7.126;2023-04-24T07:07:14;12.00;57.60
9118;DHT22;4594;50.994;7.126;2023-04-24T07:09:40;11.90;57.60
9118;DHT22;4594;50.994;7.126;2023-04-24T07:12:11;11.80;57.50
9118;DHT22;4594;50.994;7.126;2023-04-24T07:14:37;11.80;57.60
9118;DHT22;4594;50.994;7.126;2023-04-24T07:17:06;11.80;57.70
9118;DHT22;4594;50.994;7.126;2023-04-24T07:19:33;11.80;57.70
9118;DHT22;4594;50.994;7.126;2023-04-24T07:22:00;11.80;57.90
9118;DHT22;4594;50.994;7.126;2023-04-24T07:24:26;11.80;58.20
9118;DHT22;4594;50.994;7.126;2023-04-24T07:26:53;11.80;58.30
9118;DHT22;4594;50.994;7.126;2023-04-24T07:29:19;11.80;58.40
9118;DHT22;4594;50.994;7.126;2023-04-24T07:31:46;11.70;58.40
9118;DHT22;4594;50.994;7.126;2023-04-24T07:34:12;11.80;58.40
9118;DHT22;4594;50.994;7.126;2023-04-24T07:36:37;11.90;58.40
9118;DHT22;4594;50.994;7.126;2023-04-24T07:39:04;12.00;58.60
9118;DHT22;4594;50.994;7.126;2023-04-24T07:41:31;11.90;58.60
9118;DHT22;4594;50.994;7.126;2023-04-24T07:43:56;11.90;58.70
9118;DHT22;4594;50.994;7.126;2023-04-24T07:46:23;11.80;58.60
9118;DHT22;4594;50.994;7.126;2023-04-24T07:48:50;11.80;58.60
9118;DHT22;4594;50.994;7.126;2023-04-24T07:51:16;11.90;58.60
9118;DHT22;4594;50.994;7.126;2023-04-24T07:53:43;11.90;58.50
9118;DHT22;4594;50.994;7.126;2023-04-24T07:56:09;11.80;58.40
9118;DHT22;4594;50.994;7.126;2023-04-24T07:58:35;11.90;58.40
9118;DHT22;4594;50.994;7.126;2023-04-24T08:01:01;11.90;58.30
9118;DHT22;4594;50.994;7.126;2023-04-24T08:03:26;11.90;58.20
9118;DHT22;4594;50.994;7.126;2023-04-24T08:05:52;11.90;58.30
9118;DHT22;4594;50.994;7.126;2023-04-24T08:08:21;11.80;58.20
9118;DHT22;4594;50.994;7.126;2023-04-24T08:10:47;12.00;58.20
9118;DHT22;4594;50.994;7.126;2023-04-24T08:13:13;11.80;58.00
9118;DHT22;4594;50.994;7.126;2023-04-24T08:15:39;11.80;57.90
9118;DHT22;4594;50.994;7.126;2023-04-24T08:18:05;11.80;57.80
9118;DHT22;4594;50.994;7.126;2023-04-24T08:20:31;11.70;57.70
9118;DHT22;4594;50.994;7.126;2023-04-24T08:22:56;11.70;57.60
9118;DHT22;4594;50.994;7.126;2023-04-24T08:25:22;11.70;57.80
9118;DHT22;4594;50.994;7.126;2023-04-24T08:27:51;11.70;58.00
9118;DHT22;4594;50.994;7.126;2023-04-24T08:30:17;11.60;58.00
9118;DHT22;4594;50.994;7.126;2023-04-24T08:32:43;11.60;58.10
9118;DHT22;4594;50.994;7.126;2023-04-24T08:35:09;11.60;57.80
9118;DHT22;4594;50.994;7.126;2023-04-24T08:37:35;11.70;57.80
9118;DHT22;4594;50.994;7.126;2023-04-24T08:40:14;11.50;57.60
9118;DHT22;4594;50.994;7.126;2023-04-24T08:42:44;11.50;57.40
9118;DHT22;4594;50.994;7.126;2023-04-24T08:45:11;11.50;57.40
9118;DHT22;4594;50.994;7.126;2023-04-24T08:47:39;11.50;57.60
9118;DHT22;4594;50.994;7.126;2023-04-24T08:50:06;11.40;57.50
9118;DHT22;4594;50.994;7.126;2023-04-24T08:52:34;11.40;57.50
9118;DHT22;4594;50.994;7.126;2023-04-24T08:55:01;11.40;57.40
9118;DHT22;4594;50.994;7.126;2023-04-24T08:57:27;11.30;57.40
9118;DHT22;4594;50.994;7.126;2023-04-24T08:59:54;11.30;57.30
9118;DHT22;4594;50.994;7.126;2023-04-24T09:02:22;11.30;57.30
9118;DHT22;4594;50.994;7.126;2023-04-24T09:04:49;11.30;57.60
9118;DHT22;4594;50.994;7.126;2023-04-24T09:07:16;11.20;57.50
9118;DHT22;4594;50.994;7.126;2023-04-24T09:09:44;11.20;57.60
9118;DHT22;4594;50.994;7.126;2023-04-24T09:12:11;11.20;57.80
9118;DHT22;4594;50.994;7.126;2023-04-24T09:14:37;11.20;57.80
9118;DHT22;4594;50.994;7.126;2023-04-24T09:17:10;11.20;58.00
9118;DHT22;4594;50.994;7.126;2023-04-24T09:19:36;11.10;57.90
9118;DHT22;4594;50.994;7.126;2023-04-24T09:22:06;11.20;58.00
9118;DHT22;4594;50.994;7.126;2023-04-24T09:24:34;11.20;58.00
9118;DHT22;4594;50.994;7.126;2023-04-24T09:27:01;11.10;58.20
9118;DHT22;4594;50.994;7.126;2023-04-24T09:29:27;11.10;58.50
9118;DHT22;4594;50.994;7.126;2023-04-24T09:31:53;11.20;58.70
9118;DHT22;4594;50.994;7.126;2023-04-24T09:34:23;11.20;58.90
9118;DHT22;4594;50.994;7.126;2023-04-24T09:36:51;11.20;58.70
9118;DHT22;4594;50.994;7.126;2023-04-24T09:39:18;11.30;59.00
9118;DHT22;4594;50.994;7.126;2023-04-24T09:41:52;11.20;59.00
9118;DHT22;4594;50.994;7.126;2023-04-24T09:44:26;11.30;58.70
9118;DHT22;4594;50.994;7.126;2023-04-24T09:46:57;11.40;59.00
9118;DHT22;4594;50.994;7.126;2023-04-24T09:49:27;11.30;59.00
9118;DHT22;4594;50.994;7.126;2023-04-24T09:52:11;11.30;59.20
9118;DHT22;4594;50.994;7.126;2023-04-24T09:54:38;11.40;58.70
9118;DHT22;4594;50.994;7.126;2023-04-24T09:57:04;11.80;59.80
9118;DHT22;4594;50.994;7.126;2023-04-24T09:59:32;11.50;59.80
9118;DHT22;4594;50.994;7.126;2023-04-24T10:01:59;11.50;59.80
9118;DHT22;4594;50.994;7.126;2023-04-24T10:04:27;11.40;59.70
9118;DHT22;4594;50.994;7.126;2023-04-24T10:06:56;11.40;59.90
9118;DHT22;4594;50.994;7.126;2023-04-24T10:09:24;11.50;60.00
9118;DHT22;4594;50.994;7.126;2023-04-24T10:11:52;11.50;60.10
9118;DHT22;4594;50.994;7.126;2023-04-24T10:14:24;11.40;60.20
9118;DHT22;4594;50.994;7.126;2023-04-24T10:16:55;11.60;60.70
9118;DHT22;4594;50.994;7.126;2023-04-24T10:19:25;11.60;61.10
9118;DHT22;4594;50.994;7.126;2023-04-24T10:21:52;11.70;61.90
9118;DHT22;4594;50.994;7.126;2023-04-24T10:24:20;11.70;61.70
9118;DHT22;4594;50.994;7.126;2023-04-24T10:26:46;11.80;62.00
9118;DHT22;4594;50.994;7.126;2023-04-24T10:29:17;11.90;62.20
9118;DHT22;4594;50.994;7.126;2023-04-24T10:31:44;12.00;62.30
9118;DHT22;4594;50.994;7.126;2023-04-24T10:34:15;12.00;62.60
9118;DHT22;4594;50.994;7.126;2023-04-24T10:36:49;12.10;63.00
9118;DHT22;4594;50.994;7.126;2023-04-24T10:39:17;12.20;63.00
9118;DHT22;4594;50.994;7.126;2023-04-24T10:41:44;12.30;63.70
9118;DHT22;4594;50.994;7.126;2023-04-24T10:44:14;12.40;63.90
9118;DHT22;4594;50.994;7.126;2023-04-24T10:46:45;12.70;64.30
9118;DHT22;4594;50.994;7.126;2023-04-24T10:49:13;12.80;64.40
9118;DHT22;4594;50.994;7.126;2023-04-24T10:51:53;12.70;64.60
9118;DHT22;4594;50.994;7.126;2023-04-24T10:54:23;12.90;63.10
9118;DHT22;4594;50.994;7.126;2023-04-24T10:56:51;12.90;63.90
9118;DHT22;4594;50.994;7.126;2023-04-24T10:59:27;13.00;64.20
9118;DHT22;4594;50.994;7.126;2023-04-24T11:02:00;13.10;63.40
9118;DHT22;4594;50.994;7.126;2023-04-24T11:04:30;13.20;64.50
9118;DHT22;4594;50.994;7.126;2023-04-24T11:06:57;13.20;63.80
9118;DHT22;4594;50.994;7.126;2023-04-24T11:09:26;13.30;64.10
9118;DHT22;4594;50.994;7.126;2023-04-24T11:12:03;13.40;63.40
9118;DHT22;4594;50.994;7.126;2023-04-24T11:20:08;13.40;60.90
9118;DHT22;4594;50.994;7.126;2023-04-24T11:22:40;13.40;60.60
9118;DHT22;4594;50.994;7.126;2023-04-24T11:25:06;13.40;61.20
9118;DHT22;4594;50.994;7.126;2023-04-24T11:27:39;13.40;61.10
9118;DHT22;4594;50.994;7.126;2023-04-24T11:30:06;13.40;60.50
9118;DHT22;4594;50.994;7.126;2023-04-24T11:37:41;13.30;60.20
9118;DHT22;4594;50.994;7.126;2023-04-24T11:40:11;13.30;61.40
9118;DHT22;4594;50.994;7.126;2023-04-24T11:42:43;13.30;62.20
9118;DHT22;4594;50.994;7.126;2023-04-24T11:47:41;13.40;63.70
9118;DHT22;4594;50.994;7.126;2023-04-24T11:50:10;13.60;65.50
9118;DHT22;4594;50.994;7.126;2023-04-24T11:52:39;13.70;66.00
9118;DHT22;4594;50.994;7.126;2023-04-24T11:57:55;14.00;64.90
9118;DHT22;4594;50.994;7.126;2023-04-24T12:00:24;14.20;64.80
9118;DHT22;4594;50.994;7.126;2023-04-24T12:03:08;14.30;65.50
9118;DHT22;4594;50.994;7.126;2023-04-24T12:05:35;14.30;63.40
9118;DHT22;4594;50.994;7.126;2023-04-24T12:08:01;14.40;64.80
9118;DHT22;4594;50.994;7.126;2023-04-24T12:10:29;14.50;64.70
9118;DHT22;4594;50.994;7.126;2023-04-24T12:12:56;14.60;64.40
9118;DHT22;4594;50.994;7.126;2023-04-24T12:15:23;14.60;64.40
9118;DHT22;4594;50.994;7.126;2023-04-24T12:17:53;14.60;64.20
9118;DHT22;4594;50.994;7.126;2023-04-24T12:20:31;14.70;63.70
9118;DHT22;4594;50.994;7.126;2023-04-24T12:22:59;14.70;62.70
9118;DHT22;4594;50.994;7.126;2023-04-24T12:25:27;14.80;64.10
9118;DHT22;4594;50.994;7.126;2023-04-24T12:28:16;14.80;63.70
9118;DHT22;4594;50.994;7.126;2023-04-24T12:30:43;14.80;62.90
9118;DHT22;4594;50.994;7.126;2023-04-24T12:33:20;14.90;62.60
9118;DHT22;4594;50.994;7.126;2023-04-24T12:35:48;14.80;61.30
9118;DHT22;4594;50.994;7.126;2023-04-24T12:38:22;14.80;61.70
9118;DHT22;4594;50.994;7.126;2023-04-24T12:41:03;14.80;60.90
9118;DHT22;4594;50.994;7.126;2023-04-24T12:43:32;14.70;59.90
9118;DHT22;4594;50.994;7.126;2023-04-24T12:45:58;14.70;61.90
9118;DHT22;4594;50.994;7.126;2023-04-24T12:48:25;14.70;62.10
9118;DHT22;4594;50.994;7.126;2023-04-24T12:50:54;14.70;62.20
9118;DHT22;4594;50.994;7.126;2023-04-24T12:53:21;14.80;61.80
9118;DHT22;4594;50.994;7.126;2023-04-24T12:55:47;14.70;61.30
9118;DHT22;4594;50.994;7.126;2023-04-24T12:58:19;14.70;61.70
9118;DHT22;4594;50.994;7.126;2023-04-24T13:00:46;14.70;62.20
9118;DHT22;4594;50.994;7.126;2023-04-24T13:03:12;14.70;62.50
9118;DHT22;4594;50.994;7.126;2023-04-24T13:05:39;14.80;62.90
9118;DHT22;4594;50.994;7.126;2023-04-24T13:08:05;14.80;63.30
9118;DHT22;4594;50.994;7.126;2023-04-24T13:10:30;14.90;63.70
9118;DHT22;4594;50.994;7.126;2023-04-24T13:12:56;15.00;63.60
9118;DHT22;4594;50.994;7.126;2023-04-24T13:15:22;15.10;63.30
9118;DHT22;4594;50.994;7.126;2023-04-24T13:17:48;15.10;63.20
9118;DHT22;4594;50.994;7.126;2023-04-24T13:20:14;15.20;62.90
9118;DHT22;4594;50.994;7.126;2023-04-24T13:22:40;15.20;62.60
9118;DHT22;4594;50.994;7.126;2023-04-24T13:25:06;15.30;62.50
9118;DHT22;4594;50.994;7.126;2023-04-24T13:27:33;15.40;62.90
9118;DHT22;4594;50.994;7.126;2023-04-24T13:29:58;15.40;62.80
9118;DHT22;4594;50.994;7.126;2023-04-24T13:32:24;15.50;63.10
9118;DHT22;4594;50.994;7.126;2023-04-24T13:34:50;15.60;63.10
9118;DHT22;4594;50.994;7.126;2023-04-24T13:37:16;15.70;62.90
9118;DHT22;4594;50.994;7.126;2023-04-24T13:39:42;15.70;62.50
9118;DHT22;4594;50.994;7.126;2023-04-24T13:42:08;15.80;62.00
9118;DHT22;4594;50.994;7.126;2023-04-24T13:44:34;15.80;61.50
9118;DHT22;4594;50.994;7.126;2023-04-24T13:46:59;15.90;61.50
9118;DHT22;4594;50.994;7.126;2023-04-24T13:49:26;15.90;61.60
9118;DHT22;4594;50.994;7.126;2023-04-24T13:51:54;15.90;61.50
9118;DHT22;4594;50.994;7.126;2023-04-24T13:54:21;16.00;61.40
9118;DHT22;4594;50.994;7.126;2023-04-24T13:56:49;15.90;61.80
9118;DHT22;4594;50.994;7.126;2023-04-24T13:59:15;16.00;61.30
9118;DHT22;4594;50.994;7.126;2023-04-24T14:01:40;16.10;61.00
9118;DHT22;4594;50.994;7.126;2023-04-24T14:04:06;16.10;61.00
9118;DHT22;4594;50.994;7.126;2023-04-24T14:06:32;16.10;61.00
9118;DHT22;4594;50.994;7.126;2023-04-24T14:08:57;16.20;60.60
9118;DHT22;4594;50.994;7.126;2023-04-24T14:11:23;16.20;59.80
9118;DHT22;4594;50.994;7.126;2023-04-24T14:13:49;16.20;59.30
9118;DHT22;4594;50.994;7.126;2023-04-24T14:16:15;16.10;58.50
9118;DHT22;4594;50.994;7.126;2023-04-24T14:18:40;16.10;57.70
9118;DHT22;4594;50.994;7.126;2023-04-24T14:21:06;16.10;57.40
9118;DHT22;4594;50.994;7.126;2023-04-24T14:23:32;15.90;57.30
9118;DHT22;4594;50.994;7.126;2023-04-24T14:25:59;15.90;58.00
9118;DHT22;4594;50.994;7.126;2023-04-24T14:28:25;16.00;58.70
9118;DHT22;4594;50.994;7.126;2023-04-24T14:30:51;15.80;58.90
9118;DHT22;4594;50.994;7.126;2023-04-24T14:33:17;15.90;59.30
9118;DHT22;4594;50.994;7.126;2023-04-24T14:35:43;15.90;59.50
9118;DHT22;4594;50.994;7.126;2023-04-24T14:38:10;15.90;59.80
9118;DHT22;4594;50.994;7.126;2023-04-24T14:40:36;16.00;59.70
9118;DHT22;4594;50.994;7.126;2023-04-24T14:43:03;16.00;59.60
9118;DHT22;4594;50.994;7.126;2023-04-24T14:45:29;16.10;59.30
9118;DHT22;4594;50.994;7.126;2023-04-24T14:47:55;16.10;58.80
9118;DHT22;4594;50.994;7.126;2023-04-24T14:50:21;16.10;58.80
9118;DHT22;4594;50.994;7.126;2023-04-24T14:52:47;16.10;59.10
9118;DHT22;4594;50.994;7.126;2023-04-24T14:55:13;16.10;59.30
9118;DHT22;4594;50.994;7.126;2023-04-24T14:57:39;16.20;59.20
9118;DHT22;4594;50.994;7.126;2023-04-24T15:00:06;16.20;58.80
9118;DHT22;4594;50.994;7.126;2023-04-24T15:02:35;16.20;58.50
9118;DHT22;4594;50.994;7.126;2023-04-24T15:05:05;16.30;58.40
9118;DHT22;4594;50.994;7.126;2023-04-24T15:07:31;16.20;58.20
9118;DHT22;4594;50.994;7.126;2023-04-24T15:09:58;16.20;58.10
9118;DHT22;4594;50.994;7.126;2023-04-24T15:12:24;16.20;57.90
9118;DHT22;4594;50.994;7.126;2023-04-24T15:14:50;16.20;57.70
9118;DHT22;4594;50.994;7.126;2023-04-24T15:17:15;16.20;57.80
9118;DHT22;4594;50.994;7.126;2023-04-24T15:19:41;16.20;58.10
9118;DHT22;4594;50.994;7.126;2023-04-24T15:22:07;16.20;58.10
9118;DHT22;4594;50.994;7.126;2023-04-24T15:24:32;16.30;58.30
9118;DHT22;4594;50.994;7.126;2023-04-24T15:26:59;16.20;57.70
9118;DHT22;4594;50.994;7.126;2023-04-24T15:29:27;16.20;56.90
9118;DHT22;4594;50.994;7.126;2023-04-24T15:31:53;16.20;56.50
9118;DHT22;4594;50.994;7.126;2023-04-24T15:34:19;16.20;56.10
9118;DHT22;4594;50.994;7.126;2023-04-24T15:36:44;16.20;56.70
9118;DHT22;4594;50.994;7.126;2023-04-24T15:39:10;16.10;56.50
9118;DHT22;4594;50.994;7.126;2023-04-24T15:41:36;16.10;56.40
9118;DHT22;4594;50.994;7.126;2023-04-24T15:44:02;16.10;56.40
9118;DHT22;4594;50.994;7.126;2023-04-24T15:46:28;16.00;56.10
9118;DHT22;4594;50.994;7.126;2023-04-24T15:48:54;16.00;56.10
9118;DHT22;4594;50.994;7.126;2023-04-24T15:51:20;16.00;56.10
9118;DHT22;4594;50.994;7.126;2023-04-24T15:53:45;16.00;56.00
9118;DHT22;4594;50.994;7.126;2023-04-24T15:56:11;16.00;55.80
9118;DHT22;4594;50.994;7.126;2023-04-24T15:58:37;15.90;55.60
9118;DHT22;4594;50.994;7.126;2023-04-24T16:01:03;15.90;55.60
9118;DHT22;4594;50.994;7.126;2023-04-24T16:03:29;15.90;55.20
9118;DHT22;4594;50.994;7.126;2023-04-24T16:05:55;15.80;55.00
9118;DHT22;4594;50.994;7.126;2023-04-24T16:08:20;15.80;54.90
9118;DHT22;4594;50.994;7.126;2023-04-24T16:10:46;15.70;54.80
9118;DHT22;4594;50.994;7.126;2023-04-24T16:13:14;15.70;55.50
9118;DHT22;4594;50.994;7.126;2023-04-24T16:15:41;15.70;54.80